sensor_id;sensor_type;location;lat;lon;timestamp;P1;durP1;ratioP1;P2;durP2;ratioP2
41514;SDS011;27247;48.020;16.720;2023-02-11T00:01:40;61.03;;;24.50;;
41514;SDS011;27247;48.020;16.720;2023-02-11T00:05:45;60.03;;;24.60;;
41514;SDS011;27247;48.020;16.720;2023-02-11T00:09:55;55.42;;;23.40;;
41514;SDS011;27247;48.020;16.720;2023-02-11T00:14:06;59.05;;;23.13;;
41514;SDS011;27247;48.020;16.720;2023-02-11T00:18:17;49.45;;;22.02;;
41514;SDS011;27247;48.020;16.720;2023-02-11T00:22:29;50.33;;;22.85;;
41514;SDS011;27247;48.020;16.720;2023-02-11T00:26:40;52.08;;;22.85;;
41514;SDS011;27247;48.020;16.720;2023-02-11T00:30:54;44.88;;;19.33;;
41514;SDS011;27247;48.020;16.720;2023-02-11T00:35:06;47.55;;;19.88;;
41514;SDS011;27247;48.020;16.720;2023-02-11T00:39:16;44.92;;;20.98;;
41514;SDS011;27247;48.020;16.720;2023-02-11T00:43:27;51.08;;;21.35;;
41514;SDS011;27247;48.020;16.720;2023-02-11T00:47:37;42.30;;;20.45;;
41514;SDS011;27247;48.020;16.720;2023-02-11T00:51:47;44.05;;;18.10;;
41514;SDS011;27247;48.020;16.720;2023-02-11T00:55:58;39.67;;;18.50;;
41514;SDS011;27247;48.020;16.720;2023-02-11T01:00:10;42.10;;;19.67;;
41514;SDS011;27247;48.020;16.720;2023-02-11T01:04:22;46.53;;;20.25;;
41514;SDS011;27247;48.020;16.720;2023-02-11T01:08:32;43.10;;;20.00;;
41514;SDS011;27247;48.020;16.720;2023-02-11T01:12:43;54.17;;;20.25;;
41514;SDS011;27247;48.020;16.720;2023-02-11T01:16:53;50.00;;;20.50;;
41514;SDS011;27247;48.020;16.720;2023-02-11T01:21:04;50.15;;;21.33;;
41514;SDS011;27247;48.020;16.720;2023-02-11T01:25:14;51.25;;;20.02;;
41514;SDS011;27247;48.020;16.720;2023-02-11T01:29:25;49.03;;;21.52;;
41514;SDS011;27247;48.020;16.720;2023-02-11T01:33:35;50.42;;;21.98;;
41514;SDS011;27247;48.020;16.720;2023-02-11T01:37:46;54.55;;;22.48;;
41514;SDS011;27247;48.020;16.720;2023-02-11T01:41:56;52.67;;;20.38;;
41514;SDS011;27247;48.020;16.720;2023-02-11T01:50:23;48.95;;;21.15;;
41514;SDS011;27247;48.020;16.720;2023-02-11T01:54:34;50.80;;;22.70;;
41514;SDS011;27247;48.020;16.720;2023-02-11T01:59:07;60.10;;;22.40;;
41514;SDS011;27247;48.020;16.720;2023-02-11T02:03:22;52.85;;;21.27;;
41514;SDS011;27247;48.020;16.720;2023-02-11T02:07:36;53.30;;;23.75;;
41514;SDS011;27247;48.020;16.720;2023-02-11T02:11:53;47.30;;;19.33;;
41514;SDS011;27247;48.020;16.720;2023-02-11T02:16:04;50.13;;;21.08;;
41514;SDS011;27247;48.020;16.720;2023-02-11T02:29:26;46.28;;;19.25;;
41514;SDS011;27247;48.020;16.720;2023-02-11T02:33:54;49.53;;;20.35;;
41514;SDS011;27247;48.020;16.720;2023-02-11T02:42:36;41.28;;;19.05;;
41514;SDS011;27247;48.020;16.720;2023-02-11T02:46:50;39.30;;;17.42;;
41514;SDS011;27247;48.020;16.720;2023-02-11T02:59:58;40.35;;;19.88;;
41514;SDS011;27247;48.020;16.720;2023-02-11T03:08:37;49.20;;;20.60;;
41514;SDS011;27247;48.020;16.720;2023-02-11T03:12:50;57.47;;;23.58;;
41514;SDS011;27247;48.020;16.720;2023-02-11T03:17:02;61.78;;;25.05;;
41514;SDS011;27247;48.020;16.720;2023-02-11T03:21:15;56.88;;;22.92;;
41514;SDS011;27247;48.020;16.720;2023-02-11T03:25:29;56.63;;;24.98;;
41514;SDS011;27247;48.020;16.720;2023-02-11T03:29:52;63.40;;;25.63;;
41514;SDS011;27247;48.020;16.720;2023-02-11T03:34:05;60.55;;;25.10;;
41514;SDS011;27247;48.020;16.720;2023-02-11T03:38:20;61.95;;;25.10;;
41514;SDS011;27247;48.020;16.720;2023-02-11T03:42:36;65.28;;;26.60;;
41514;SDS011;27247;48.020;16.720;2023-02-11T03:46:51;54.55;;;23.38;;
41514;SDS011;27247;48.020;16.720;2023-02-11T03:51:04;62.05;;;26.23;;
41514;SDS011;27247;48.020;16.720;2023-02-11T03:55:18;66.90;;;26.98;;
41514;SDS011;27247;48.020;16.720;2023-02-11T03:59:30;52.08;;;23.50;;
41514;SDS011;27247;48.020;16.720;2023-02-11T04:03:40;64.75;;;26.67;;
41514;SDS011;27247;48.020;16.720;2023-02-11T04:07:50;62.92;;;24.55;;
41514;SDS011;27247;48.020;16.720;2023-02-11T04:12:01;66.25;;;25.98;;
41514;SDS011;27247;48.020;16.720;2023-02-11T04:16:11;63.97;;;24.35;;
41514;SDS011;27247;48.020;16.720;2023-02-11T04:20:22;52.80;;;23.80;;
41514;SDS011;27247;48.020;16.720;2023-02-11T04:24:32;53.20;;;22.50;;
41514;SDS011;27247;48.020;16.720;2023-02-11T04:28:43;48.75;;;20.92;;
41514;SDS011;27247;48.020;16.720;2023-02-11T04:32:53;56.50;;;23.95;;
41514;SDS011;27247;48.020;16.720;2023-02-11T04:37:04;60.63;;;24.02;;
41514;SDS011;27247;48.020;16.720;2023-02-11T04:41:14;80.90;;;27.15;;
41514;SDS011;27247;48.020;16.720;2023-02-11T04:45:24;59.22;;;24.77;;
41514;SDS011;27247;48.020;16.720;2023-02-11T04:49:35;64.47;;;26.40;;
41514;SDS011;27247;48.020;16.720;2023-02-11T04:53:45;57.83;;;24.90;;
41514;SDS011;27247;48.020;16.720;2023-02-11T04:57:56;56.13;;;24.10;;
41514;SDS011;27247;48.020;16.720;2023-02-11T05:02:06;51.92;;;24.15;;
41514;SDS011;27247;48.020;16.720;2023-02-11T05:06:17;48.20;;;22.92;;
41514;SDS011;27247;48.020;16.720;2023-02-11T05:10:27;51.13;;;21.25;;
41514;SDS011;27247;48.020;16.720;2023-02-11T05:14:37;55.65;;;22.60;;
41514;SDS011;27247;48.020;16.720;2023-02-11T05:18:48;60.28;;;21.60;;
41514;SDS011;27247;48.020;16.720;2023-02-11T05:22:59;56.08;;;21.92;;
41514;SDS011;27247;48.020;16.720;2023-02-11T05:27:09;53.45;;;22.42;;
41514;SDS011;27247;48.020;16.720;2023-02-11T05:31:19;52.72;;;21.75;;
41514;SDS011;27247;48.020;16.720;2023-02-11T05:35:30;56.78;;;22.90;;
41514;SDS011;27247;48.020;16.720;2023-02-11T05:39:40;50.97;;;20.85;;
41514;SDS011;27247;48.020;16.720;2023-02-11T05:43:50;54.80;;;21.08;;
41514;SDS011;27247;48.020;16.720;2023-02-11T05:48:01;50.80;;;23.13;;
41514;SDS011;27247;48.020;16.720;2023-02-11T05:52:11;57.08;;;23.33;;
41514;SDS011;27247;48.020;16.720;2023-02-11T05:56:22;54.88;;;22.60;;
41514;SDS011;27247;48.020;16.720;2023-02-11T06:00:32;55.75;;;22.52;;
41514;SDS011;27247;48.020;16.720;2023-02-11T06:04:43;53.90;;;20.88;;
41514;SDS011;27247;48.020;16.720;2023-02-11T06:08:53;51.42;;;22.23;;
41514;SDS011;27247;48.020;16.720;2023-02-11T06:13:03;52.42;;;21.75;;
41514;SDS011;27247;48.020;16.720;2023-02-11T06:17:14;56.33;;;24.20;;
41514;SDS011;27247;48.020;16.720;2023-02-11T06:21:24;43.15;;;21.70;;
41514;SDS011;27247;48.020;16.720;2023-02-11T06:25:35;51.50;;;22.88;;
41514;SDS011;27247;48.020;16.720;2023-02-11T06:29:46;51.85;;;23.55;;
41514;SDS011;27247;48.020;16.720;2023-02-11T06:33:57;47.50;;;22.55;;
41514;SDS011;27247;48.020;16.720;2023-02-11T06:38:08;49.17;;;22.77;;
41514;SDS011;27247;48.020;16.720;2023-02-11T06:42:18;49.08;;;22.13;;
41514;SDS011;27247;48.020;16.720;2023-02-11T06:46:28;52.80;;;22.50;;
41514;SDS011;27247;48.020;16.720;2023-02-11T06:50:39;51.85;;;21.42;;
41514;SDS011;27247;48.020;16.720;2023-02-11T06:54:49;60.13;;;24.65;;
41514;SDS011;27247;48.020;16.720;2023-02-11T06:59:00;58.33;;;22.42;;
41514;SDS011;27247;48.020;16.720;2023-02-11T07:03:10;62.35;;;26.88;;
41514;SDS011;27247;48.020;16.720;2023-02-11T07:07:20;60.00;;;28.25;;
41514;SDS011;27247;48.020;16.720;2023-02-11T07:11:31;58.90;;;24.73;;
41514;SDS011;27247;48.020;16.720;2023-02-11T07:15:42;56.35;;;24.15;;
41514;SDS011;27247;48.020;16.720;2023-02-11T07:19:52;63.50;;;27.45;;
41514;SDS011;27247;48.020;16.720;2023-02-11T07:24:07;53.30;;;25.38;;
41514;SDS011;27247;48.020;16.720;2023-02-11T07:28:18;59.03;;;24.65;;
41514;SDS011;27247;48.020;16.720;2023-02-11T07:32:28;54.58;;;24.92;;
41514;SDS011;27247;48.020;16.720;2023-02-11T07:36:39;56.65;;;26.15;;
41514;SDS011;27247;48.020;16.720;2023-02-11T07:40:49;66.68;;;27.20;;
41514;SDS011;27247;48.020;16.720;2023-02-11T07:45:00;52.53;;;25.20;;
41514;SDS011;27247;48.020;16.720;2023-02-11T07:49:11;61.90;;;25.70;;
41514;SDS011;27247;48.020;16.720;2023-02-11T07:53:21;64.78;;;28.35;;
41514;SDS011;27247;48.020;16.720;2023-02-11T07:57:32;65.38;;;31.25;;
41514;SDS011;27247;48.020;16.720;2023-02-11T08:01:42;104.35;;;40.97;;
41514;SDS011;27247;48.020;16.720;2023-02-11T08:05:52;89.07;;;37.83;;
41514;SDS011;27247;48.020;16.720;2023-02-11T08:10:03;90.93;;;37.22;;
41514;SDS011;27247;48.020;16.720;2023-02-11T08:14:13;82.57;;;35.70;;
41514;SDS011;27247;48.020;16.720;2023-02-11T08:18:24;69.22;;;33.65;;
41514;SDS011;27247;48.020;16.720;2023-02-11T08:22:34;65.18;;;30.40;;
41514;SDS011;27247;48.020;16.720;2023-02-11T08:26:45;62.63;;;27.85;;
41514;SDS011;27247;48.020;16.720;2023-02-11T08:30:55;65.88;;;28.77;;
41514;SDS011;27247;48.020;16.720;2023-02-11T08:35:06;62.65;;;30.10;;
41514;SDS011;27247;48.020;16.720;2023-02-11T08:39:19;69.35;;;30.48;;
41514;SDS011;27247;48.020;16.720;2023-02-11T08:43:31;76.53;;;34.72;;
41514;SDS011;27247;48.020;16.720;2023-02-11T08:47:42;60.70;;;29.20;;
41514;SDS011;27247;48.020;16.720;2023-02-11T08:51:52;110.72;;;48.42;;
41514;SDS011;27247;48.020;16.720;2023-02-11T08:56:05;94.35;;;39.03;;
41514;SDS011;27247;48.020;16.720;2023-02-11T09:00:16;68.28;;;29.05;;
41514;SDS011;27247;48.020;16.720;2023-02-11T09:04:27;55.58;;;25.50;;
41514;SDS011;27247;48.020;16.720;2023-02-11T09:08:38;61.17;;;28.45;;
41514;SDS011;27247;48.020;16.720;2023-02-11T09:12:50;59.08;;;27.50;;
41514;SDS011;27247;48.020;16.720;2023-02-11T09:17:01;61.63;;;28.02;;
41514;SDS011;27247;48.020;16.720;2023-02-11T09:21:11;57.67;;;27.52;;
41514;SDS011;27247;48.020;16.720;2023-02-11T09:25:22;57.03;;;27.58;;
41514;SDS011;27247;48.020;16.720;2023-02-11T09:29:33;60.45;;;29.33;;
41514;SDS011;27247;48.020;16.720;2023-02-11T09:33:44;57.88;;;29.13;;
41514;SDS011;27247;48.020;16.720;2023-02-11T09:37:59;61.75;;;30.63;;
41514;SDS011;27247;48.020;16.720;2023-02-11T09:46:40;54.53;;;25.98;;
41514;SDS011;27247;48.020;16.720;2023-02-11T09:50:56;50.35;;;25.33;;
41514;SDS011;27247;48.020;16.720;2023-02-11T09:55:31;55.70;;;25.02;;
41514;SDS011;27247;48.020;16.720;2023-02-11T09:59:48;56.60;;;25.95;;
41514;SDS011;27247;48.020;16.720;2023-02-11T10:17:24;47.08;;;22.27;;
41514;SDS011;27247;48.020;16.720;2023-02-11T10:22:03;47.35;;;22.58;;
41514;SDS011;27247;48.020;16.720;2023-02-11T10:26:19;49.75;;;23.90;;
41514;SDS011;27247;48.020;16.720;2023-02-11T10:30:35;45.20;;;22.30;;
41514;SDS011;27247;48.020;16.720;2023-02-11T10:43:23;43.03;;;19.30;;
41514;SDS011;27247;48.020;16.720;2023-02-11T10:47:36;44.10;;;20.30;;
41514;SDS011;27247;48.020;16.720;2023-02-11T10:51:48;42.47;;;20.40;;
41514;SDS011;27247;48.020;16.720;2023-02-11T10:55:59;44.78;;;19.73;;
41514;SDS011;27247;48.020;16.720;2023-02-11T11:08:47;38.28;;;19.38;;
41514;SDS011;27247;48.020;16.720;2023-02-11T11:12:59;38.00;;;18.27;;
41514;SDS011;27247;48.020;16.720;2023-02-11T11:17:11;38.35;;;19.27;;
41514;SDS011;27247;48.020;16.720;2023-02-11T11:21:30;42.73;;;19.43;;
41514;SDS011;27247;48.020;16.720;2023-02-11T11:26:37;46.60;;;20.08;;
41514;SDS011;27247;48.020;16.720;2023-02-11T11:30:25;42.25;;;18.52;;
41514;SDS011;27247;48.020;16.720;2023-02-11T11:34:42;46.33;;;19.80;;
41514;SDS011;27247;48.020;16.720;2023-02-11T11:38:59;34.15;;;18.30;;
41514;SDS011;27247;48.020;16.720;2023-02-11T11:47:28;37.45;;;18.05;;
41514;SDS011;27247;48.020;16.720;2023-02-11T11:51:42;36.97;;;17.70;;
41514;SDS011;27247;48.020;16.720;2023-02-11T11:56:19;38.58;;;19.17;;
41514;SDS011;27247;48.020;16.720;2023-02-11T12:00:36;36.22;;;17.27;;
41514;SDS011;27247;48.020;16.720;2023-02-11T12:05:10;31.17;;;14.57;;
41514;SDS011;27247;48.020;16.720;2023-02-11T12:14:11;26.05;;;12.52;;
41514;SDS011;27247;48.020;16.720;2023-02-11T12:22:53;29.67;;;12.73;;
41514;SDS011;27247;48.020;16.720;2023-02-11T12:27:10;24.75;;;12.95;;
41514;SDS011;27247;48.020;16.720;2023-02-11T12:36:19;27.88;;;11.52;;
41514;SDS011;27247;48.020;16.720;2023-02-11T12:49:51;24.45;;;11.13;;
41514;SDS011;27247;48.020;16.720;2023-02-11T12:58:42;19.48;;;9.95;;
41514;SDS011;27247;48.020;16.720;2023-02-11T13:07:13;15.87;;;7.83;;
41514;SDS011;27247;48.020;16.720;2023-02-11T13:11:38;13.75;;;7.30;;
41514;SDS011;27247;48.020;16.720;2023-02-11T13:16:39;19.23;;;7.57;;
41514;SDS011;27247;48.020;16.720;2023-02-11T13:20:44;16.33;;;8.15;;
41514;SDS011;27247;48.020;16.720;2023-02-11T13:25:45;16.90;;;7.65;;
41514;SDS011;27247;48.020;16.720;2023-02-11T13:38:51;20.70;;;8.38;;
41514;SDS011;27247;48.020;16.720;2023-02-11T13:43:20;17.75;;;8.82;;
41514;SDS011;27247;48.020;16.720;2023-02-11T13:47:33;22.65;;;9.40;;
41514;SDS011;27247;48.020;16.720;2023-02-11T13:51:53;24.55;;;9.85;;
41514;SDS011;27247;48.020;16.720;2023-02-11T13:56:05;24.52;;;11.02;;
41514;SDS011;27247;48.020;16.720;2023-02-11T14:09:35;27.45;;;12.48;;
41514;SDS011;27247;48.020;16.720;2023-02-11T14:18:02;31.30;;;12.88;;
41514;SDS011;27247;48.020;16.720;2023-02-11T14:22:46;39.63;;;16.23;;
41514;SDS011;27247;48.020;16.720;2023-02-11T14:27:04;31.67;;;13.52;;
41514;SDS011;27247;48.020;16.720;2023-02-11T14:31:23;31.08;;;12.95;;
41514;SDS011;27247;48.020;16.720;2023-02-11T14:35:42;28.00;;;12.40;;
41514;SDS011;27247;48.020;16.720;2023-02-11T14:44:36;29.98;;;12.50;;
41514;SDS011;27247;48.020;16.720;2023-02-11T14:48:47;29.55;;;13.77;;
41514;SDS011;27247;48.020;16.720;2023-02-11T14:53:00;35.72;;;13.70;;
41514;SDS011;27247;48.020;16.720;2023-02-11T14:57:13;30.95;;;12.68;;
41514;SDS011;27247;48.020;16.720;2023-02-11T15:01:32;32.10;;;13.88;;
41514;SDS011;27247;48.020;16.720;2023-02-11T15:05:45;35.15;;;14.20;;
41514;SDS011;27247;48.020;16.720;2023-02-11T15:09:55;36.63;;;14.13;;
41514;SDS011;27247;48.020;16.720;2023-02-11T15:14:18;40.63;;;15.20;;
41514;SDS011;27247;48.020;16.720;2023-02-11T15:18:39;34.33;;;14.23;;
41514;SDS011;27247;48.020;16.720;2023-02-11T15:22:59;29.02;;;13.07;;
41514;SDS011;27247;48.020;16.720;2023-02-11T15:27:12;35.53;;;15.23;;
41514;SDS011;27247;48.020;16.720;2023-02-11T15:31:27;34.60;;;14.15;;
41514;SDS011;27247;48.020;16.720;2023-02-11T15:35:38;33.85;;;15.25;;
41514;SDS011;27247;48.020;16.720;2023-02-11T15:39:50;32.95;;;13.77;;
41514;SDS011;27247;48.020;16.720;2023-02-11T15:44:02;31.00;;;12.63;;
41514;SDS011;27247;48.020;16.720;2023-02-11T15:48:14;31.42;;;13.45;;
41514;SDS011;27247;48.020;16.720;2023-02-11T15:52:32;31.73;;;12.93;;
41514;SDS011;27247;48.020;16.720;2023-02-11T15:56:44;26.73;;;11.40;;
41514;SDS011;27247;48.020;16.720;2023-02-11T16:00:58;29.52;;;11.40;;
41514;SDS011;27247;48.020;16.720;2023-02-11T16:05:32;28.38;;;11.65;;
41514;SDS011;27247;48.020;16.720;2023-02-11T16:09:45;29.08;;;12.57;;
41514;SDS011;27247;48.020;16.720;2023-02-11T16:13:56;26.55;;;11.80;;
41514;SDS011;27247;48.020;16.720;2023-02-11T16:22:37;25.43;;;11.07;;
41514;SDS011;27247;48.020;16.720;2023-02-11T16:26:49;24.10;;;10.80;;
41514;SDS011;27247;48.020;16.720;2023-02-11T16:31:02;22.15;;;10.25;;
41514;SDS011;27247;48.020;16.720;2023-02-11T16:35:14;17.40;;;9.45;;
41514;SDS011;27247;48.020;16.720;2023-02-11T16:39:25;21.92;;;9.75;;
41514;SDS011;27247;48.020;16.720;2023-02-11T16:43:37;25.40;;;10.38;;
41514;SDS011;27247;48.020;16.720;2023-02-11T16:47:49;17.70;;;9.48;;
41514;SDS011;27247;48.020;16.720;2023-02-11T16:52:00;29.98;;;12.80;;
41514;SDS011;27247;48.020;16.720;2023-02-11T16:56:16;18.63;;;9.80;;
41514;SDS011;27247;48.020;16.720;2023-02-11T17:00:28;20.80;;;9.68;;
41514;SDS011;27247;48.020;16.720;2023-02-11T17:04:39;23.25;;;11.23;;
41514;SDS011;27247;48.020;16.720;2023-02-11T17:08:50;19.92;;;10.18;;
41514;SDS011;27247;48.020;16.720;2023-02-11T17:13:01;23.17;;;11.27;;
41514;SDS011;27247;48.020;16.720;2023-02-11T17:17:13;19.77;;;9.52;;
41514;SDS011;27247;48.020;16.720;2023-02-11T17:21:25;21.48;;;10.73;;
41514;SDS011;27247;48.020;16.720;2023-02-11T17:25:36;22.60;;;10.77;;
41514;SDS011;27247;48.020;16.720;2023-02-11T17:29:46;22.33;;;11.45;;
41514;SDS011;27247;48.020;16.720;2023-02-11T17:33:57;23.95;;;12.05;;
41514;SDS011;27247;48.020;16.720;2023-02-11T17:38:08;20.25;;;10.93;;
41514;SDS011;27247;48.020;16.720;2023-02-11T17:42:18;28.05;;;13.45;;
41514;SDS011;27247;48.020;16.720;2023-02-11T17:46:29;26.83;;;13.85;;
41514;SDS011;27247;48.020;16.720;2023-02-11T17:50:41;27.33;;;13.32;;
41514;SDS011;27247;48.020;16.720;2023-02-11T17:54:52;20.40;;;11.38;;
41514;SDS011;27247;48.020;16.720;2023-02-11T17:59:04;24.52;;;12.63;;
41514;SDS011;27247;48.020;16.720;2023-02-11T18:03:16;24.83;;;13.18;;
41514;SDS011;27247;48.020;16.720;2023-02-11T18:07:27;29.98;;;14.55;;
41514;SDS011;27247;48.020;16.720;2023-02-11T18:11:42;32.22;;;14.43;;
41514;SDS011;27247;48.020;16.720;2023-02-11T18:15:53;30.77;;;12.40;;
41514;SDS011;27247;48.020;16.720;2023-02-11T18:20:04;23.60;;;12.05;;
41514;SDS011;27247;48.020;16.720;2023-02-11T18:24:16;22.63;;;12.25;;
41514;SDS011;27247;48.020;16.720;2023-02-11T18:28:27;20.73;;;12.27;;
41514;SDS011;27247;48.020;16.720;2023-02-11T18:32:38;25.50;;;13.15;;
41514;SDS011;27247;48.020;16.720;2023-02-11T18:36:48;31.10;;;14.32;;
41514;SDS011;27247;48.020;16.720;2023-02-11T18:40:59;37.28;;;15.90;;
41514;SDS011;27247;48.020;16.720;2023-02-11T18:45:10;32.22;;;14.45;;
41514;SDS011;27247;48.020;16.720;2023-02-11T18:49:24;25.30;;;14.27;;
41514;SDS011;27247;48.020;16.720;2023-02-11T18:53:34;32.63;;;14.50;;
41514;SDS011;27247;48.020;16.720;2023-02-11T18:57:45;31.13;;;14.48;;
41514;SDS011;27247;48.020;16.720;2023-02-11T19:01:56;27.67;;;13.55;;
41514;SDS011;27247;48.020;16.720;2023-02-11T19:06:11;31.00;;;15.15;;
41514;SDS011;27247;48.020;16.720;2023-02-11T19:10:27;31.15;;;15.60;;
41514;SDS011;27247;48.020;16.720;2023-02-11T19:14:38;33.10;;;16.95;;
41514;SDS011;27247;48.020;16.720;2023-02-11T19:18:48;31.52;;;15.73;;
41514;SDS011;27247;48.020;16.720;2023-02-11T19:22:59;34.90;;;16.42;;
41514;SDS011;27247;48.020;16.720;2023-02-11T19:27:10;27.88;;;15.20;;
41514;SDS011;27247;48.020;16.720;2023-02-11T19:31:21;30.60;;;16.15;;
41514;SDS011;27247;48.020;16.720;2023-02-11T19:35:32;31.58;;;15.50;;
41514;SDS011;27247;48.020;16.720;2023-02-11T19:39:46;32.35;;;14.07;;
41514;SDS011;27247;48.020;16.720;2023-02-11T19:43:57;32.88;;;15.95;;
41514;SDS011;27247;48.020;16.720;2023-02-11T19:48:10;29.52;;;15.10;;
41514;SDS011;27247;48.020;16.720;2023-02-11T19:52:22;26.65;;;13.80;;
41514;SDS011;27247;48.020;16.720;2023-02-11T19:56:32;29.73;;;15.68;;
41514;SDS011;27247;48.020;16.720;2023-02-11T20:00:43;33.92;;;14.90;;
41514;SDS011;27247;48.020;16.720;2023-02-11T20:04:54;28.95;;;15.30;;
41514;SDS011;27247;48.020;16.720;2023-02-11T20:09:07;32.92;;;16.08;;
41514;SDS011;27247;48.020;16.720;2023-02-11T20:13:22;31.27;;;15.13;;
41514;SDS011;27247;48.020;16.720;2023-02-11T20:17:33;32.03;;;16.40;;
41514;SDS011;27247;48.020;16.720;2023-02-11T20:21:44;33.38;;;15.48;;
41514;SDS011;27247;48.020;16.720;2023-02-11T20:25:55;31.42;;;15.30;;
41514;SDS011;27247;48.020;16.720;2023-02-11T20:30:06;32.97;;;18.15;;
41514;SDS011;27247;48.020;16.720;2023-02-11T20:34:18;30.08;;;14.63;;
41514;SDS011;27247;48.020;16.720;2023-02-11T20:38:31;30.08;;;16.02;;
41514;SDS011;27247;48.020;16.720;2023-02-11T20:42:41;33.13;;;16.80;;
41514;SDS011;27247;48.020;16.720;2023-02-11T20:46:52;35.25;;;16.42;;
41514;SDS011;27247;48.020;16.720;2023-02-11T20:51:04;33.05;;;15.80;;
41514;SDS011;27247;48.020;16.720;2023-02-11T20:55:17;31.08;;;16.73;;
41514;SDS011;27247;48.020;16.720;2023-02-11T20:59:28;30.48;;;16.23;;
41514;SDS011;27247;48.020;16.720;2023-02-11T21:03:39;32.03;;;15.60;;
41514;SDS011;27247;48.020;16.720;2023-02-11T21:07:52;30.75;;;15.57;;
41514;SDS011;27247;48.020;16.720;2023-02-11T21:12:03;33.42;;;16.65;;
41514;SDS011;27247;48.020;16.720;2023-02-11T21:16:16;38.17;;;17.13;;
41514;SDS011;27247;48.020;16.720;2023-02-11T21:20:32;33.38;;;18.02;;
41514;SDS011;27247;48.020;16.720;2023-02-11T21:24:42;30.67;;;15.45;;
41514;SDS011;27247;48.020;16.720;2023-02-11T21:28:53;31.15;;;16.27;;
41514;SDS011;27247;48.020;16.720;2023-02-11T21:33:04;33.17;;;17.33;;
41514;SDS011;27247;48.020;16.720;2023-02-11T21:37:15;34.58;;;16.65;;
41514;SDS011;27247;48.020;16.720;2023-02-11T21:41:26;32.92;;;16.23;;
41514;SDS011;27247;48.020;16.720;2023-02-11T21:45:41;32.83;;;16.33;;
41514;SDS011;27247;48.020;16.720;2023-02-11T21:49:56;34.35;;;17.10;;
41514;SDS011;27247;48.020;16.720;2023-02-11T21:54:06;32.30;;;16.42;;
41514;SDS011;27247;48.020;16.720;2023-02-11T21:58:17;31.10;;;16.75;;
41514;SDS011;27247;48.020;16.720;2023-02-11T22:02:28;38.42;;;16.48;;
41514;SDS011;27247;48.020;16.720;2023-02-11T22:06:38;33.50;;;17.02;;
41514;SDS011;27247;48.020;16.720;2023-02-11T22:10:48;30.40;;;15.88;;
41514;SDS011;27247;48.020;16.720;2023-02-11T22:14:59;34.88;;;16.35;;
41514;SDS011;27247;48.020;16.720;2023-02-11T22:19:09;31.65;;;15.85;;
41514;SDS011;27247;48.020;16.720;2023-02-11T22:23:20;34.65;;;17.48;;
41514;SDS011;27247;48.020;16.720;2023-02-11T22:27:30;34.72;;;17.13;;
41514;SDS011;27247;48.020;16.720;2023-02-11T22:31:41;38.55;;;17.00;;
41514;SDS011;27247;48.020;16.720;2023-02-11T22:36:02;41.92;;;18.33;;
41514;SDS011;27247;48.020;16.720;2023-02-11T22:40:14;33.90;;;18.13;;
41514;SDS011;27247;48.020;16.720;2023-02-11T22:44:25;36.40;;;17.60;;
41514;SDS011;27247;48.020;16.720;2023-02-11T22:48:35;43.70;;;19.08;;
41514;SDS011;27247;48.020;16.720;2023-02-11T22:52:46;39.10;;;19.63;;
41514;SDS011;27247;48.020;16.720;2023-02-11T22:56:56;35.88;;;17.30;;
41514;SDS011;27247;48.020;16.720;2023-02-11T23:01:06;38.03;;;18.58;;
41514;SDS011;27247;48.020;16.720;2023-02-11T23:05:17;35.50;;;17.83;;
41514;SDS011;27247;48.020;16.720;2023-02-11T23:09:27;38.93;;;18.17;;
41514;SDS011;27247;48.020;16.720;2023-02-11T23:13:38;34.27;;;17.33;;
41514;SDS011;27247;48.020;16.720;2023-02-11T23:17:50;31.77;;;17.85;;
41514;SDS011;27247;48.020;16.720;2023-02-11T23:22:00;34.53;;;17.10;;
41514;SDS011;27247;48.020;16.720;2023-02-11T23:26:13;35.72;;;18.45;;
41514;SDS011;27247;48.020;16.720;2023-02-11T23:30:25;34.90;;;18.83;;
41514;SDS011;27247;48.020;16.720;2023-02-11T23:34:36;34.38;;;18.25;;
41514;SDS011;27247;48.020;16.720;2023-02-11T23:38:47;38.30;;;19.60;;
41514;SDS011;27247;48.020;16.720;2023-02-11T23:42:57;33.53;;;19.15;;
41514;SDS011;27247;48.020;16.720;2023-02-11T23:47:08;40.03;;;19.17;;
41514;SDS011;27247;48.020;16.720;2023-02-11T23:51:18;34.90;;;19.07;;
41514;SDS011;27247;48.020;16.720;2023-02-11T23:55:29;36.70;;;19.00;;
41514;SDS011;27247;48.020;16.720;2023-02-11T23:59:39;39.80;;;19.90;;
